createdAt,value
2022-09-24T00:02:05.719Z,80.50
2022-09-24T00:04:33.956Z,81.98
2022-09-24T00:07:02.157Z,82.68
2022-09-24T00:09:30.842Z,82.67
2022-09-24T00:12:00.864Z,83.04
2022-09-24T00:14:29.340Z,82.90
2022-09-24T00:16:58.131Z,82.60
2022-09-24T00:19:26.512Z,81.86
2022-09-24T00:21:54.790Z,81.13
2022-09-24T00:24:42.010Z,80.79
2022-09-24T00:27:10.928Z,80.34
2022-09-24T00:29:39.383Z,80.00
2022-09-24T00:32:08.684Z,80.34
2022-09-24T00:34:37.473Z,79.93
2022-09-24T00:37:05.955Z,79.96
2022-09-24T00:39:34.438Z,80.41
2022-09-24T00:42:02.923Z,81.21
2022-09-24T00:44:41.370Z,81.64
2022-09-24T00:47:15.756Z,82.21
2022-09-24T00:49:45.332Z,82.19
2022-09-24T00:52:13.833Z,82.63
2022-09-24T00:54:43.453Z,82.89
2022-09-24T00:57:13.129Z,83.08
2022-09-24T00:59:42.158Z,82.54
2022-09-24T01:02:10.385Z,82.46
2022-09-24T01:04:39.709Z,81.78
2022-09-24T01:07:08.239Z,81.53
2022-09-24T01:09:36.499Z,81.57
2022-09-24T01:12:23.102Z,81.82
2022-09-24T01:14:57.936Z,82.19
2022-09-24T01:17:26.806Z,82.01
2022-09-24T01:19:58.070Z,81.51
2022-09-24T01:22:46.725Z,81.71
2022-09-24T01:25:30.466Z,80.89
2022-09-24T01:28:26.698Z,80.54
2022-09-24T01:30:59.783Z,81.22
2022-09-24T01:33:28.804Z,81.42
2022-09-24T01:36:00.951Z,80.97
2022-09-24T01:38:31.685Z,81.07
2022-09-24T01:41:02.972Z,82.01
2022-09-24T01:43:32.428Z,83.47
2022-09-24T01:46:02.764Z,82.69
2022-09-24T01:48:33.577Z,84.50
2022-09-24T01:51:08.533Z,87.61
2022-09-24T01:53:50.429Z,87.01
2022-09-24T01:56:22.904Z,88.44
2022-09-24T01:59:07.341Z,89.94
2022-09-24T02:01:40.924Z,91.14
2022-09-24T02:04:12.926Z,90.65
2022-09-24T02:06:45.094Z,89.24
2022-09-24T02:09:32.015Z,88.90
2022-09-24T02:12:03.973Z,88.49
2022-09-24T02:14:33.873Z,88.49
2022-09-24T02:17:04.827Z,88.34
2022-09-24T02:19:36.176Z,87.72
2022-09-24T02:22:06.657Z,86.88
2022-09-24T02:24:43.790Z,86.28
2022-09-24T02:27:12.375Z,85.38
2022-09-24T02:29:40.892Z,85.67
2022-09-24T02:32:10.670Z,86.53
2022-09-24T02:34:41.815Z,86.10
2022-09-24T02:37:13.472Z,85.91
2022-09-24T02:39:42.247Z,86.66
2022-09-24T02:42:12.687Z,87.10
2022-09-24T02:44:41.271Z,86.27
2022-09-24T02:47:09.649Z,85.88
2022-09-24T02:49:38.131Z,84.99
2022-09-24T02:52:06.692Z,84.80
2022-09-24T02:54:34.996Z,84.34
2022-09-24T02:57:03.350Z,84.02
2022-09-24T02:59:32.161Z,83.45
2022-09-24T03:02:01.282Z,82.46
2022-09-24T03:04:30.917Z,82.61
2022-09-24T03:06:59.553Z,83.07
2022-09-24T03:09:27.726Z,83.05
2022-09-24T03:11:57.132Z,82.77
2022-09-24T03:14:26.493Z,83.56
2022-09-24T03:16:54.812Z,84.03
2022-09-24T03:19:23.195Z,83.05
2022-09-24T03:21:51.551Z,83.04
2022-09-24T03:24:20.359Z,82.41
2022-09-24T03:26:48.538Z,82.60
2022-09-24T03:29:17.119Z,84.81
2022-09-24T03:31:45.805Z,84.16
2022-09-24T03:34:14.187Z,83.25
2022-09-24T03:36:42.668Z,83.03
2022-09-24T03:39:11.160Z,83.59
2022-09-24T03:41:39.427Z,84.38
2022-09-24T03:44:08.004Z,83.22
2022-09-24T03:46:36.693Z,82.57
2022-09-24T03:49:05.389Z,82.30
2022-09-24T03:51:33.864Z,82.42
2022-09-24T03:54:02.434Z,82.43
2022-09-24T03:56:30.936Z,83.03
2022-09-24T03:58:59.207Z,82.51
2022-09-24T04:01:28.934Z,82.46
2022-09-24T04:03:57.602Z,82.94
2022-09-24T04:06:27.237Z,82.90
2022-09-24T04:08:56.205Z,83.44
2022-09-24T04:11:25.205Z,84.07
2022-09-24T04:13:53.813Z,84.06
2022-09-24T04:16:22.943Z,84.46
2022-09-24T04:18:51.265Z,83.97
2022-09-24T04:21:19.946Z,83.96
2022-09-24T04:23:48.529Z,84.34
2022-09-24T04:26:17.322Z,84.04
2022-09-24T04:28:45.803Z,83.44
2022-09-24T04:31:14.360Z,83.62
2022-09-24T04:33:42.764Z,83.88
2022-09-24T04:36:11.164Z,83.61
2022-09-24T04:38:39.700Z,83.51
2022-09-24T04:41:08.918Z,83.47
2022-09-24T04:43:37.287Z,83.59
2022-09-24T04:46:06.237Z,84.90
2022-09-24T04:48:38.556Z,89.10
2022-09-24T04:51:07.815Z,89.69
2022-09-24T04:53:37.442Z,91.03
2022-09-24T04:56:06.433Z,90.50
2022-09-24T04:58:35.161Z,90.68
2022-09-24T05:01:04.277Z,91.75
2022-09-24T05:03:33.454Z,92.32
2022-09-24T05:06:02.313Z,92.28
2022-09-24T05:08:30.522Z,93.26
2022-09-24T05:10:58.799Z,92.74
2022-09-24T05:13:27.894Z,92.99
2022-09-24T05:15:56.847Z,92.20
2022-09-24T05:18:25.166Z,92.95
2022-09-24T05:20:53.851Z,92.50
2022-09-24T05:23:22.094Z,91.87
2022-09-24T05:26:09.044Z,91.21
2022-09-24T05:28:38.550Z,90.38
2022-09-24T05:31:06.875Z,90.29
2022-09-24T05:33:36.608Z,88.93
2022-09-24T05:36:05.223Z,88.36
2022-09-24T05:38:33.909Z,87.27
2022-09-24T05:41:02.472Z,87.04
2022-09-24T05:43:32.011Z,86.75
2022-09-24T05:46:00.451Z,85.96
2022-09-24T05:48:28.861Z,85.45
2022-09-24T05:50:57.242Z,84.73
2022-09-24T05:53:25.633Z,84.62
2022-09-24T05:55:54.060Z,83.87
2022-09-24T05:58:22.497Z,84.10
2022-09-24T06:00:51.358Z,83.23
2022-09-24T06:03:21.162Z,82.57
2022-09-24T06:05:50.716Z,82.13
2022-09-24T06:08:19.984Z,82.08
2022-09-24T06:10:49.094Z,80.91
2022-09-24T06:13:19.168Z,80.72
2022-09-24T06:15:47.491Z,81.07
2022-09-24T06:18:15.974Z,80.29
2022-09-24T06:20:45.188Z,78.51
2022-09-24T06:23:14.578Z,78.67
2022-09-24T06:25:42.848Z,78.66
2022-09-24T06:28:11.233Z,78.65
2022-09-24T06:30:40.021Z,76.63
2022-09-24T06:33:10.042Z,77.63
2022-09-24T06:35:39.445Z,77.00
2022-09-24T06:38:09.645Z,77.71
2022-09-24T06:40:39.426Z,74.81
2022-09-24T06:43:10.216Z,74.49
2022-09-24T06:45:38.597Z,75.32
2022-09-24T06:48:06.978Z,71.25
2022-09-24T06:50:35.557Z,72.08
2022-09-24T06:53:07.321Z,72.39
2022-09-24T06:55:36.213Z,71.70
2022-09-24T06:58:16.038Z,72.19
2022-09-24T07:00:50.569Z,71.76
2022-09-24T07:03:19.274Z,71.43
2022-09-24T07:05:47.653Z,70.36
2022-09-24T07:08:16.543Z,70.07
2022-09-24T07:10:45.948Z,69.72
2022-09-24T07:13:14.737Z,69.14
2022-09-24T07:15:43.383Z,68.00
2022-09-24T07:18:12.539Z,66.78
2022-09-24T07:20:40.800Z,66.53
2022-09-24T07:23:10.408Z,66.47
2022-09-24T07:25:39.506Z,65.18
2022-09-24T07:28:09.218Z,65.29
2022-09-24T07:30:37.702Z,65.25
2022-09-24T07:33:24.180Z,64.06
2022-09-24T07:35:52.587Z,64.28
2022-09-24T07:38:21.413Z,64.80
2022-09-24T07:40:50.281Z,65.03
2022-09-24T07:43:18.658Z,61.63
2022-09-24T07:45:47.847Z,63.26
2022-09-24T07:48:16.916Z,62.94
2022-09-24T07:51:25.008Z,62.27
2022-09-24T07:54:33.474Z,61.58
2022-09-24T07:57:46.605Z,59.88
2022-09-24T08:00:55.331Z,56.42
2022-09-24T08:03:23.666Z,57.62
2022-09-24T08:05:56.805Z,56.41
2022-09-24T08:08:25.081Z,57.07
2022-09-24T08:10:53.561Z,55.74
2022-09-24T08:13:27.361Z,55.93
2022-09-24T08:15:58.122Z,57.04
2022-09-24T08:18:26.996Z,55.49
2022-09-24T08:20:55.480Z,52.89
2022-09-24T08:23:23.961Z,51.59
2022-09-24T08:25:54.595Z,50.17
2022-09-24T08:28:22.974Z,51.19
2022-09-24T08:30:51.630Z,45.97
2022-09-24T08:33:20.145Z,45.89
2022-09-24T08:35:49.241Z,45.35
2022-09-24T08:38:18.133Z,47.60
2022-09-24T08:40:51.285Z,46.77
2022-09-24T08:43:39.866Z,46.93
2022-09-24T08:46:34.440Z,46.00
2022-09-24T08:49:04.800Z,45.67
2022-09-24T08:51:36.857Z,44.97
2022-09-24T08:54:13.460Z,45.27
2022-09-24T08:56:46.297Z,44.76
2022-09-24T08:59:14.810Z,45.92
2022-09-24T09:02:09.586Z,46.32
2022-09-24T09:04:45.083Z,46.36
2022-09-24T09:07:21.221Z,45.17
2022-09-24T09:09:52.675Z,44.74
2022-09-24T09:12:28.121Z,42.59
2022-09-24T09:15:03.765Z,42.49
2022-09-24T09:17:32.456Z,42.56
2022-09-24T09:20:03.837Z,43.53
2022-09-24T09:22:36.492Z,41.76
2022-09-24T09:25:17.532Z,42.70
2022-09-24T09:27:46.971Z,41.57
2022-09-24T09:30:17.482Z,41.04
2022-09-24T09:32:57.863Z,38.18
2022-09-24T09:35:29.724Z,36.34
2022-09-24T09:38:04.451Z,38.59
2022-09-24T09:40:33.113Z,40.21
2022-09-24T09:43:03.205Z,39.84
2022-09-24T09:45:56.012Z,39.73
2022-09-24T09:48:26.444Z,39.68
2022-09-24T09:50:59.838Z,39.13
2022-09-24T09:53:31.430Z,39.99
2022-09-24T09:56:03.361Z,38.84
2022-09-24T09:58:33.173Z,40.33
2022-09-24T10:01:04.619Z,40.43
2022-09-24T10:03:34.780Z,40.01
2022-09-24T10:06:05.768Z,38.85
2022-09-24T10:08:34.270Z,38.06
2022-09-24T10:11:03.575Z,38.77
2022-09-24T10:14:11.781Z,38.66
2022-09-24T10:17:20.103Z,39.03
2022-09-24T10:24:00.344Z,37.93
2022-09-24T10:27:17.514Z,38.09
2022-09-24T10:30:24.577Z,36.19
2022-09-24T10:33:13.675Z,37.02
2022-09-24T10:35:42.356Z,37.14
2022-09-24T10:38:16.982Z,37.08
2022-09-24T10:40:46.231Z,35.78
2022-09-24T10:43:22.047Z,35.36
2022-09-24T10:45:58.218Z,34.51
2022-09-24T10:49:08.361Z,34.20
2022-09-24T10:52:01.214Z,33.62
2022-09-24T10:54:42.601Z,34.00
2022-09-24T10:57:31.744Z,34.26
2022-09-24T11:00:17.297Z,33.44
2022-09-24T11:02:55.250Z,31.95
2022-09-24T11:05:25.274Z,32.68
2022-09-24T11:08:22.806Z,30.50
2022-09-24T11:11:02.917Z,31.23
2022-09-24T11:13:49.113Z,31.28
2022-09-24T11:16:39.242Z,31.11
2022-09-24T11:19:16.947Z,30.81
2022-09-24T11:21:45.462Z,31.29
2022-09-24T11:24:31.356Z,30.81
2022-09-24T11:27:18.596Z,30.86
2022-09-24T11:29:50.337Z,31.04
2022-09-24T11:32:25.475Z,30.83
2022-09-24T11:34:56.828Z,31.93
2022-09-24T11:37:39.319Z,31.93
2022-09-24T11:40:26.372Z,31.31
2022-09-24T11:43:03.002Z,30.18
2022-09-24T11:45:34.687Z,29.40
2022-09-24T11:48:22.524Z,29.81
2022-09-24T11:51:06.848Z,30.25
2022-09-24T11:53:40.188Z,28.58
2022-09-24T11:56:22.859Z,29.14
2022-09-24T11:59:00.588Z,29.58
2022-09-24T12:01:34.444Z,29.74
2022-09-24T12:04:12.039Z,27.88
2022-09-24T12:06:54.542Z,27.72
2022-09-24T12:09:43.571Z,27.99
2022-09-24T12:12:21.452Z,27.13
2022-09-24T12:14:53.133Z,27.71
2022-09-24T12:17:28.654Z,28.75
2022-09-24T12:20:02.625Z,27.03
2022-09-24T12:22:32.286Z,28.28
2022-09-24T12:25:00.821Z,27.39
2022-09-24T12:27:34.694Z,27.04
2022-09-24T12:30:21.813Z,27.15
2022-09-24T12:32:59.435Z,26.89
2022-09-24T12:35:47.659Z,26.21
2022-09-24T12:38:36.305Z,26.05
2022-09-24T12:41:11.872Z,24.87
2022-09-24T12:44:02.340Z,25.40
2022-09-24T12:46:42.168Z,25.67
2022-09-24T12:49:18.866Z,25.14
2022-09-24T12:51:47.800Z,24.48
2022-09-24T12:54:36.537Z,23.83
2022-09-24T12:57:24.951Z,24.48
2022-09-24T12:59:54.594Z,24.38
2022-09-24T13:02:24.846Z,24.80
2022-09-24T13:05:17.877Z,24.92
2022-09-24T13:07:56.231Z,24.22
2022-09-24T13:10:24.778Z,23.77
2022-09-24T13:12:54.429Z,23.61
2022-09-24T13:15:33.192Z,23.38
2022-09-24T13:18:04.528Z,23.83
2022-09-24T13:20:33.656Z,22.83
2022-09-24T13:23:17.502Z,23.16
2022-09-24T13:25:55.402Z,22.17
2022-09-24T13:28:37.790Z,22.95
2022-09-24T13:31:16.691Z,22.86
2022-09-24T13:33:49.932Z,22.69
2022-09-24T13:36:18.497Z,22.64
2022-09-24T13:38:57.138Z,21.04
2022-09-24T13:41:28.386Z,21.19
2022-09-24T13:44:22.700Z,21.84
2022-09-24T13:46:54.338Z,21.51
2022-09-24T13:49:24.029Z,20.98
2022-09-24T13:52:28.240Z,20.51
2022-09-24T13:55:00.945Z,18.67
2022-09-24T13:57:30.248Z,18.75
2022-09-24T14:00:06.128Z,18.89
2022-09-24T14:02:38.143Z,19.48
2022-09-24T14:05:09.623Z,18.99
2022-09-24T14:07:38.106Z,18.56
2022-09-24T14:10:15.499Z,19.42
2022-09-24T14:12:44.083Z,18.70
2022-09-24T14:15:17.113Z,19.72
2022-09-24T14:17:55.792Z,19.53
2022-09-24T14:20:26.268Z,19.34
2022-09-24T14:22:54.901Z,18.83
2022-09-24T14:25:29.153Z,18.20
2022-09-24T14:27:59.450Z,18.23
2022-09-24T14:30:29.447Z,18.01
2022-09-24T14:33:06.041Z,17.42
2022-09-24T14:35:36.242Z,17.48
2022-09-24T14:38:10.173Z,17.92
2022-09-24T14:40:44.256Z,18.44
2022-09-24T14:43:18.100Z,19.53
2022-09-24T14:46:26.629Z,20.38
2022-09-24T14:49:43.921Z,20.47
2022-09-24T14:52:52.235Z,20.91
2022-09-24T14:56:00.578Z,21.43
2022-09-24T14:58:49.164Z,22.30
2022-09-24T15:01:57.360Z,23.08
2022-09-24T15:05:06.778Z,23.55
2022-09-24T15:07:35.790Z,23.69
2022-09-24T15:10:44.103Z,23.72
2022-09-24T15:13:52.480Z,23.48
2022-09-24T15:16:28.011Z,22.76
2022-09-24T15:18:59.551Z,21.61
2022-09-24T15:21:28.136Z,21.65
2022-09-24T15:23:56.794Z,21.39
2022-09-24T15:26:28.656Z,21.53
2022-09-24T15:28:58.137Z,21.80
2022-09-24T15:31:26.641Z,21.87
2022-09-24T15:33:56.294Z,21.84
2022-09-24T15:36:25.454Z,21.77
2022-09-24T15:38:58.645Z,22.73
2022-09-24T15:41:27.128Z,23.64
2022-09-24T15:43:59.223Z,24.74
2022-09-24T15:46:27.765Z,25.73
2022-09-24T15:48:56.774Z,26.55
2022-09-24T15:51:25.158Z,27.44
2022-09-24T15:53:53.943Z,28.46
2022-09-24T15:56:22.433Z,29.89
2022-09-24T15:58:50.995Z,30.87
2022-09-24T16:01:19.748Z,31.64
2022-09-24T16:03:48.388Z,32.26
2022-09-24T16:06:16.873Z,33.03
2022-09-24T16:08:45.555Z,33.83
2022-09-24T16:11:13.897Z,34.55
2022-09-24T16:13:42.215Z,35.03
2022-09-24T16:16:11.596Z,35.84
2022-09-24T16:18:41.123Z,36.53
2022-09-24T16:21:09.482Z,36.91
2022-09-24T16:23:37.996Z,37.69
2022-09-24T16:26:06.777Z,37.97
2022-09-24T16:28:35.731Z,38.61
2022-09-24T16:31:08.073Z,39.10
2022-09-24T16:33:40.076Z,39.87
2022-09-24T16:36:08.785Z,40.51
2022-09-24T16:38:38.165Z,41.05
2022-09-24T16:41:07.193Z,42.00
2022-09-24T16:43:35.778Z,42.32
2022-09-24T16:46:05.637Z,42.30
2022-09-24T16:48:34.383Z,42.92
2022-09-24T16:51:07.035Z,43.38
2022-09-24T16:53:35.856Z,43.23
2022-09-24T16:56:08.896Z,43.14
2022-09-24T16:58:37.546Z,44.59
2022-09-24T17:01:07.177Z,44.43
2022-09-24T17:03:37.152Z,44.97
2022-09-24T17:06:06.363Z,45.87
2022-09-24T17:08:54.598Z,46.29
2022-09-24T17:11:23.674Z,46.05
2022-09-24T17:13:51.884Z,46.45
2022-09-24T17:16:20.199Z,47.42
2022-09-24T17:18:49.038Z,47.51
2022-09-24T17:21:18.339Z,48.88
2022-09-24T17:23:47.232Z,48.95
2022-09-24T17:26:17.461Z,50.15
2022-09-24T17:28:46.316Z,50.08
2022-09-24T17:31:16.622Z,49.99
2022-09-24T17:33:45.668Z,49.82
2022-09-24T17:36:15.905Z,48.25
2022-09-24T17:38:44.679Z,48.46
2022-09-24T17:41:14.188Z,50.22
2022-09-24T17:43:42.868Z,49.98
2022-09-24T17:46:19.888Z,50.46
2022-09-24T17:48:51.453Z,50.58
2022-09-24T17:51:22.392Z,50.98
2022-09-24T17:53:54.516Z,50.76
2022-09-24T17:56:25.044Z,51.31
2022-09-24T17:58:54.550Z,51.60
2022-09-24T18:01:28.138Z,50.68
2022-09-24T18:03:59.909Z,52.12
2022-09-24T18:06:32.894Z,52.52
2022-09-24T18:09:02.414Z,52.24
2022-09-24T18:11:32.293Z,52.54
2022-09-24T18:14:01.418Z,52.99
2022-09-24T18:16:31.044Z,53.84
2022-09-24T18:19:00.636Z,53.77
2022-09-24T18:21:29.838Z,53.97
2022-09-24T18:23:59.887Z,53.83
2022-09-24T18:26:34.583Z,53.60
2022-09-24T18:29:06.167Z,53.68
2022-09-24T18:31:35.115Z,53.75
2022-09-24T18:34:06.180Z,53.86
2022-09-24T18:36:36.600Z,55.06
2022-09-24T18:39:06.326Z,54.97
2022-09-24T18:41:35.298Z,54.49
2022-09-24T18:44:04.807Z,54.35
2022-09-24T18:46:33.596Z,54.95
2022-09-24T18:49:02.873Z,54.64
2022-09-24T18:51:32.634Z,55.22
2022-09-24T18:54:03.315Z,54.72
2022-09-24T18:56:32.154Z,55.47
2022-09-24T18:59:07.169Z,56.01
2022-09-24T19:01:40.995Z,55.49
2022-09-24T19:04:11.300Z,55.23
2022-09-24T19:06:40.995Z,54.44
2022-09-24T19:09:10.495Z,54.22
2022-09-24T19:11:39.416Z,54.35
2022-09-24T19:14:07.687Z,54.92
2022-09-24T19:16:36.373Z,55.32
2022-09-24T19:19:04.834Z,55.93
2022-09-24T19:21:33.155Z,56.30
2022-09-24T19:24:01.823Z,55.06
2022-09-24T19:26:32.096Z,55.20
2022-09-24T19:29:00.653Z,55.75
2022-09-24T19:31:31.085Z,56.57
2022-09-24T19:34:03.193Z,57.82
2022-09-24T19:36:37.353Z,57.68
2022-09-24T19:39:08.086Z,57.69
2022-09-24T19:41:36.864Z,58.01
2022-09-24T19:44:08.893Z,57.99
2022-09-24T19:46:38.882Z,57.76
2022-09-24T19:49:07.749Z,57.67
2022-09-24T19:51:36.629Z,57.81
2022-09-24T19:54:09.766Z,57.39
2022-09-24T19:56:38.326Z,57.27
2022-09-24T19:59:08.175Z,57.78
2022-09-24T20:01:37.012Z,57.32
2022-09-24T20:04:06.771Z,57.77
2022-09-24T20:06:38.069Z,57.50
2022-09-24T20:09:06.964Z,58.74
2022-09-24T20:11:35.443Z,59.29
2022-09-24T20:14:06.367Z,60.15
2022-09-24T20:16:35.482Z,60.41
2022-09-24T20:19:04.984Z,60.12
2022-09-24T20:21:38.073Z,61.05
2022-09-24T20:24:07.990Z,61.14
2022-09-24T20:26:55.003Z,60.65
2022-09-24T20:29:24.208Z,60.99
2022-09-24T20:31:53.508Z,60.34
2022-09-24T20:34:26.880Z,60.12
2022-09-24T20:36:57.837Z,60.80
2022-09-24T20:39:26.021Z,59.55
2022-09-24T20:41:54.703Z,60.10
2022-09-24T20:44:25.514Z,60.59
2022-09-24T20:46:53.818Z,60.92
2022-09-24T20:49:23.162Z,62.12
2022-09-24T20:51:56.515Z,61.33
2022-09-24T20:54:27.151Z,61.73
2022-09-24T20:56:56.352Z,61.93
2022-09-24T20:59:26.197Z,62.45
2022-09-24T21:01:54.930Z,62.58
2022-09-24T21:04:24.123Z,61.72
2022-09-24T21:06:52.836Z,61.83
2022-09-24T21:09:21.115Z,61.98
2022-09-24T21:11:50.765Z,62.33
2022-09-24T21:14:19.510Z,61.55
2022-09-24T21:16:48.118Z,61.54
2022-09-24T21:19:16.783Z,61.42
2022-09-24T21:21:44.963Z,61.96
2022-09-24T21:24:14.698Z,62.53
2022-09-24T21:26:45.542Z,62.85
2022-09-24T21:29:16.885Z,63.01
2022-09-24T21:31:46.954Z,62.28
2022-09-24T21:34:17.047Z,61.98
2022-09-24T21:36:48.956Z,62.69
2022-09-24T21:39:23.281Z,63.04
2022-09-24T21:41:53.365Z,62.01
2022-09-24T21:44:22.183Z,61.85
2022-09-24T21:46:52.799Z,62.49
2022-09-24T21:49:21.400Z,62.14
2022-09-24T21:51:51.008Z,62.79
2022-09-24T21:54:19.309Z,63.29
2022-09-24T21:56:48.281Z,63.65
2022-09-24T21:59:35.776Z,64.31
2022-09-24T22:02:04.699Z,65.19
2022-09-24T22:04:33.641Z,66.02
2022-09-24T22:07:02.585Z,64.52
2022-09-24T22:09:32.580Z,66.06
2022-09-24T22:12:02.221Z,64.89
2022-09-24T22:14:31.002Z,65.37
2022-09-24T22:16:59.664Z,65.87
2022-09-24T22:19:28.373Z,65.32
2022-09-24T22:21:56.754Z,65.06
2022-09-24T22:24:25.237Z,64.51
2022-09-24T22:26:54.641Z,65.44
2022-09-24T22:29:23.143Z,65.11
2022-09-24T22:31:51.709Z,64.41
2022-09-24T22:34:39.437Z,64.57
2022-09-24T22:37:07.938Z,64.91
2022-09-24T22:39:36.712Z,64.15
2022-09-24T22:42:05.601Z,65.16
2022-09-24T22:44:33.983Z,67.30
2022-09-24T22:47:02.670Z,66.33
2022-09-24T22:49:32.991Z,67.42
2022-09-24T22:52:01.575Z,66.37
2022-09-24T22:54:30.803Z,65.97
2022-09-24T22:56:59.257Z,65.66
2022-09-24T22:59:27.842Z,66.12
2022-09-24T23:01:56.426Z,65.90
2022-09-24T23:04:24.910Z,66.06
2022-09-24T23:06:53.295Z,66.13
2022-09-24T23:09:21.971Z,66.66
2022-09-24T23:11:50.453Z,66.34
2022-09-24T23:14:18.739Z,67.19
2022-09-24T23:16:47.584Z,67.90
2022-09-24T23:19:17.464Z,66.92
2022-09-24T23:21:46.226Z,67.43
2022-09-24T23:24:16.139Z,67.09
2022-09-24T23:26:44.829Z,68.28
2022-09-24T23:29:13.311Z,67.63
2022-09-24T23:31:41.909Z,67.22
2022-09-24T23:34:12.192Z,66.96
2022-09-24T23:36:40.602Z,66.92
2022-09-24T23:39:09.287Z,66.59
2022-09-24T23:41:38.254Z,66.80
2022-09-24T23:44:06.993Z,66.32
2022-09-24T23:46:35.499Z,66.04
2022-09-24T23:49:04.443Z,66.27
2022-09-24T23:51:32.823Z,66.60
2022-09-24T23:54:01.306Z,66.26
2022-09-24T23:56:29.626Z,65.87
2022-09-24T23:58:58.240Z,66.45
